createdAt,value
2018-12-20T00:00:33.654Z,98908.87
2018-12-20T00:03:14.331Z,98902.97
2018-12-20T00:05:55.426Z,98906.00
2018-12-20T00:08:30.369Z,98903.09
2018-12-20T00:11:06.703Z,98899.61
2018-12-20T00:13:45.511Z,98907.09
2018-12-20T00:16:26.210Z,98907.02
2018-12-20T00:19:04.788Z,98905.08
2018-12-20T00:21:44.255Z,98900.30
2018-12-20T00:24:23.400Z,98907.16
2018-12-20T00:27:01.438Z,98900.54
2018-12-20T00:29:38.289Z,98901.70
2018-12-20T00:32:12.466Z,98891.28
2018-12-20T00:34:42.535Z,98899.43
2018-12-20T00:37:17.213Z,98896.60
2018-12-20T00:39:55.932Z,98900.30
2018-12-20T00:42:34.296Z,98897.78
2018-12-20T00:45:14.108Z,98899.30
2018-12-20T00:47:50.655Z,98897.84
2018-12-20T00:50:19.778Z,98894.05
2018-12-20T00:52:59.037Z,98889.88
2018-12-20T00:55:27.943Z,98899.16
2018-12-20T00:58:06.874Z,98901.31
2018-12-20T01:00:45.322Z,98905.39
2018-12-20T01:03:24.429Z,98905.98
2018-12-20T01:06:05.014Z,98902.70
2018-12-20T01:08:43.298Z,98907.70
2018-12-20T01:11:22.555Z,98902.38
2018-12-20T01:13:57.092Z,98908.87
2018-12-20T01:16:35.305Z,98906.63
2018-12-20T01:19:13.664Z,98915.81
2018-12-20T01:21:52.019Z,98918.25
2018-12-20T01:24:21.785Z,98912.73
2018-12-20T01:27:00.436Z,98909.86
2018-12-20T01:29:38.776Z,98913.59
2018-12-20T01:32:15.263Z,98919.04
2018-12-20T01:34:49.843Z,98923.44
2018-12-20T01:37:22.423Z,98925.46
2018-12-20T01:40:00.920Z,98927.76
2018-12-20T01:42:39.670Z,98935.34
2018-12-20T01:45:14.466Z,98931.16
2018-12-20T01:47:53.402Z,98925.59
2018-12-20T01:50:31.474Z,98929.08
2018-12-20T01:53:09.827Z,98931.38
2018-12-20T01:55:41.528Z,98947.04
2018-12-20T01:58:20.059Z,98947.17
2018-12-20T02:00:56.708Z,98938.85
2018-12-20T02:03:31.185Z,98937.08
2018-12-20T02:06:10.763Z,98933.26
2018-12-20T02:08:48.827Z,98932.55
2018-12-20T02:11:27.438Z,98929.39
2018-12-20T02:13:57.690Z,98929.20
2018-12-20T02:16:26.721Z,98925.31
2018-12-20T02:18:55.409Z,98932.14
2018-12-20T02:21:30.731Z,98939.73
2018-12-20T02:24:09.242Z,98936.86
2018-12-20T02:26:47.284Z,98936.16
2018-12-20T02:29:27.833Z,98932.33
2018-12-20T02:32:06.495Z,98934.84
2018-12-20T02:34:35.514Z,98932.53
2018-12-20T02:37:09.656Z,98934.63
2018-12-20T02:39:49.089Z,98935.22
2018-12-20T02:42:17.698Z,98926.57
2018-12-20T02:44:52.615Z,98926.03
2018-12-20T02:47:30.686Z,98931.42
2018-12-20T02:50:05.307Z,98930.11
2018-12-20T02:52:34.766Z,98923.59
2018-12-20T02:55:09.561Z,98916.02
2018-12-20T02:57:47.806Z,98922.50
2018-12-20T03:00:21.886Z,98916.55
2018-12-20T03:02:56.022Z,98915.62
2018-12-20T03:05:30.942Z,98919.04
2018-12-20T03:08:09.486Z,98907.62
2018-12-20T03:10:46.587Z,98908.08
2018-12-20T03:13:25.239Z,98911.48
2018-12-20T03:15:59.340Z,98913.97
2018-12-20T03:18:35.509Z,98908.09
2018-12-20T03:21:18.086Z,98900.08
2018-12-20T03:23:51.955Z,98910.45
2018-12-20T03:26:26.098Z,98908.70
2018-12-20T03:29:00.218Z,98903.37
2018-12-20T03:31:39.315Z,98904.16
2018-12-20T03:34:13.654Z,98901.25
2018-12-20T03:36:51.781Z,98898.91
2018-12-20T03:39:28.008Z,98893.45
2018-12-20T03:42:06.961Z,98891.17
2018-12-20T03:44:45.664Z,98894.30
2018-12-20T03:47:17.998Z,98886.43
2018-12-20T03:49:48.018Z,98891.81
2018-12-20T03:52:24.090Z,98889.80
2018-12-20T03:55:03.704Z,98891.17
2018-12-20T03:57:38.135Z,98891.22
2018-12-20T04:00:16.367Z,98891.75
2018-12-20T04:02:52.886Z,98891.34
2018-12-20T04:05:21.880Z,98890.36
2018-12-20T04:08:00.575Z,98884.95
2018-12-20T04:10:39.188Z,98894.91
2018-12-20T04:13:13.471Z,98898.13
2018-12-20T04:15:47.674Z,98903.55
2018-12-20T04:18:21.958Z,98895.20
2018-12-20T04:20:58.267Z,98891.88
2018-12-20T04:23:39.104Z,98895.11
2018-12-20T04:26:13.694Z,98898.23
2018-12-20T04:28:48.034Z,98893.52
2018-12-20T04:31:22.393Z,98890.33
2018-12-20T04:33:56.997Z,98890.56
2018-12-20T04:36:35.051Z,98892.92
2018-12-20T04:39:13.184Z,98899.80
2018-12-20T04:41:51.465Z,98903.22
2018-12-20T04:44:30.798Z,98906.91
2018-12-20T04:46:59.783Z,98901.58
2018-12-20T04:49:40.157Z,98893.04
2018-12-20T04:52:13.446Z,98900.06
2018-12-20T04:54:54.666Z,98896.91
2018-12-20T04:57:28.557Z,98895.18
2018-12-20T05:00:02.706Z,98896.18
2018-12-20T05:02:39.001Z,98891.16
2018-12-20T05:05:13.482Z,98889.38
2018-12-20T05:07:42.455Z,98896.03
2018-12-20T05:10:24.993Z,98893.88
2018-12-20T05:12:59.948Z,98895.06
2018-12-20T05:15:46.166Z,98894.48
2018-12-20T05:18:20.758Z,98892.98
2018-12-20T05:20:52.987Z,98891.71
2018-12-20T05:23:39.700Z,98896.69
2018-12-20T05:26:14.454Z,98901.42
2018-12-20T05:28:47.159Z,98904.97
2018-12-20T05:31:22.790Z,98899.02
2018-12-20T05:33:57.663Z,98902.03
2018-12-20T05:36:26.718Z,98901.58
2018-12-20T05:39:11.389Z,98907.39
2018-12-20T05:41:46.478Z,98907.13
2018-12-20T05:44:16.910Z,98899.88
2018-12-20T05:46:46.180Z,98898.89
2018-12-20T05:49:20.793Z,98900.91
2018-12-20T05:51:55.130Z,98903.81
2018-12-20T05:54:33.302Z,98903.34
2018-12-20T05:57:12.253Z,98898.56
2018-12-20T05:59:51.138Z,98908.20
2018-12-20T06:02:28.112Z,98897.33
2018-12-20T06:05:04.952Z,98899.48
2018-12-20T06:07:41.141Z,98903.59
2018-12-20T06:10:19.760Z,98911.46
2018-12-20T06:12:49.851Z,98907.67
2018-12-20T06:15:26.643Z,98910.37
2018-12-20T06:18:07.537Z,98914.40
2018-12-20T06:20:40.631Z,98919.64
2018-12-20T06:23:14.493Z,98919.22
2018-12-20T06:25:43.215Z,98916.31
2018-12-20T06:28:21.778Z,98921.48
2018-12-20T06:31:01.225Z,98917.48
2018-12-20T06:33:38.026Z,98921.48
2018-12-20T06:36:19.078Z,98916.91
2018-12-20T06:38:48.094Z,98917.38
2018-12-20T06:41:22.172Z,98916.52
2018-12-20T06:43:58.370Z,98914.36
2018-12-20T06:46:38.714Z,98915.78
2018-12-20T06:49:17.129Z,98924.02
2018-12-20T06:51:51.526Z,98927.98
2018-12-20T06:54:32.022Z,98926.63
2018-12-20T06:57:05.961Z,98926.22
2018-12-20T06:59:42.907Z,98929.27
2018-12-20T07:02:21.171Z,98929.41
2018-12-20T07:04:52.890Z,98930.58
2018-12-20T07:07:50.591Z,98929.94
2018-12-20T07:10:45.896Z,98929.47
2018-12-20T07:13:28.573Z,98941.94
2018-12-20T07:16:16.221Z,98935.56
2018-12-20T07:18:56.746Z,98934.25
2018-12-20T07:21:33.155Z,98938.58
2018-12-20T07:24:09.977Z,98937.27
2018-12-20T07:26:51.074Z,98934.23
2018-12-20T07:29:26.587Z,98928.39
2018-12-20T07:32:09.402Z,98938.91
2018-12-20T07:34:49.310Z,98937.29
2018-12-20T07:37:32.089Z,98943.54
2018-12-20T07:40:08.335Z,98935.35
2018-12-20T07:42:42.288Z,98928.41
2018-12-20T07:45:21.977Z,98939.84
2018-12-20T07:50:52.494Z,98921.30
2018-12-20T07:53:28.262Z,98931.11
2018-12-20T07:56:04.102Z,98933.27
2018-12-20T07:58:39.147Z,98939.53
2018-12-20T08:01:11.623Z,98944.67
2018-12-20T08:03:45.278Z,98949.40
2018-12-20T08:06:20.919Z,98957.48
2018-12-20T08:08:57.383Z,98949.84
2018-12-20T08:11:35.100Z,98950.08
2018-12-20T08:14:13.770Z,98960.77
2018-12-20T08:16:51.538Z,98953.74
2018-12-20T08:19:36.224Z,98955.09
2018-12-20T08:22:08.371Z,98966.02
2018-12-20T08:24:50.431Z,98962.08
2018-12-20T08:27:30.192Z,98976.84
2018-12-20T08:30:09.227Z,98974.59
2018-12-20T08:32:48.775Z,98982.79
2018-12-20T08:35:27.960Z,98981.16
2018-12-20T08:38:05.217Z,98993.37
2018-12-20T08:40:40.161Z,98988.34
2018-12-20T08:43:15.292Z,98990.67
2018-12-20T08:45:56.969Z,98991.74
2018-12-20T08:48:37.375Z,98998.80
2018-12-20T08:51:20.462Z,98997.69
2018-12-20T08:53:54.145Z,98998.26
2018-12-20T08:56:34.155Z,99006.06
2018-12-20T08:59:21.916Z,99006.52
2018-12-20T09:02:02.220Z,99009.85
2018-12-20T09:04:33.535Z,99010.23
2018-12-20T09:07:09.622Z,99010.66
2018-12-20T09:09:45.828Z,99018.70
2018-12-20T09:12:18.541Z,99020.36
2018-12-20T09:14:54.135Z,99018.12
2018-12-20T09:17:32.647Z,99023.93
2018-12-20T09:20:01.780Z,99019.29
2018-12-20T09:22:40.139Z,99026.24
2018-12-20T09:25:14.614Z,99023.47
2018-12-20T09:27:51.013Z,99023.39
2018-12-20T09:30:20.477Z,99023.34
2018-12-20T09:32:52.722Z,99015.78
2018-12-20T09:35:27.632Z,99022.89
2018-12-20T09:38:01.622Z,99023.34
2018-12-20T09:40:37.243Z,99025.14
2018-12-20T09:43:12.151Z,99023.52
2018-12-20T09:45:49.231Z,99011.69
2018-12-20T09:48:28.118Z,99020.69
2018-12-20T09:51:06.899Z,99020.77
2018-12-20T09:53:44.982Z,99021.16
2018-12-20T09:56:28.818Z,99027.34
2018-12-20T09:59:06.158Z,99031.90
2018-12-20T10:01:45.079Z,99031.98
2018-12-20T10:07:12.861Z,99023.63
2018-12-20T10:09:49.944Z,99019.14
2018-12-20T10:12:23.931Z,99031.59
2018-12-20T10:14:58.214Z,99029.66
2018-12-20T10:17:36.517Z,99025.80
2018-12-20T10:20:14.569Z,99023.86
2018-12-20T10:22:54.013Z,99023.28
2018-12-20T10:25:35.483Z,99018.67
2018-12-20T10:28:11.362Z,99022.38
2018-12-20T10:30:45.817Z,99014.83
2018-12-20T10:33:22.241Z,99018.86
2018-12-20T10:35:56.201Z,99014.75
2018-12-20T10:38:30.427Z,99012.66
2018-12-20T10:41:04.606Z,99012.75
2018-12-20T10:43:43.003Z,99011.44
2018-12-20T10:46:18.120Z,99011.89
2018-12-20T10:48:54.643Z,99008.23
2018-12-20T10:51:33.128Z,99002.62
2018-12-20T10:54:07.869Z,99001.38
2018-12-20T10:56:48.274Z,98999.22
2018-12-20T10:59:24.926Z,98998.80
2018-12-20T11:02:08.185Z,98995.73
2018-12-20T11:04:51.515Z,98991.02
2018-12-20T11:07:33.282Z,98981.42
2018-12-20T11:10:14.931Z,98986.95
2018-12-20T11:12:51.701Z,98973.86
2018-12-20T11:15:25.728Z,98975.34
2018-12-20T11:18:01.824Z,98969.38
2018-12-20T11:20:36.601Z,98974.88
2018-12-20T11:23:10.720Z,98967.14
2018-12-20T11:25:49.646Z,98967.67
2018-12-20T11:28:27.540Z,98959.97
2018-12-20T11:31:03.932Z,98952.55
2018-12-20T11:33:38.522Z,98967.69
2018-12-20T11:36:17.306Z,98954.46
2018-12-20T11:38:52.767Z,98949.45
2018-12-20T11:41:31.924Z,98955.56
2018-12-20T11:44:10.954Z,98947.42
2018-12-20T11:46:49.987Z,98952.62
2018-12-20T11:49:25.297Z,98950.30
2018-12-20T11:52:04.258Z,98942.79
2018-12-20T11:54:39.735Z,98951.91
2018-12-20T11:57:18.187Z,98945.26
2018-12-20T11:59:50.578Z,98951.98
2018-12-20T12:02:29.327Z,98947.48
2018-12-20T12:05:10.658Z,98947.02
2018-12-20T12:07:45.355Z,98944.73
2018-12-20T12:10:20.504Z,98946.44
2018-12-20T12:13:00.323Z,98950.98
2018-12-20T12:15:39.420Z,98944.28
2018-12-20T12:18:17.351Z,98943.86
2018-12-20T12:20:55.952Z,98945.34
2018-12-20T12:23:34.871Z,98943.73
2018-12-20T12:26:11.418Z,98939.92
2018-12-20T12:28:49.485Z,98947.51
2018-12-20T12:31:27.391Z,98939.41
2018-12-20T12:34:03.727Z,98946.28
2018-12-20T12:36:37.953Z,98947.43
2018-12-20T12:39:15.101Z,98947.30
2018-12-20T12:41:50.103Z,98953.16
2018-12-20T12:44:24.834Z,98949.98
2018-12-20T12:47:01.518Z,98955.70
2018-12-20T12:49:36.312Z,98953.45
2018-12-20T12:52:14.797Z,98956.72
2018-12-20T12:54:52.662Z,98948.28
2018-12-20T12:57:33.532Z,98958.03
2018-12-20T13:00:12.810Z,98947.13
2018-12-20T13:02:51.239Z,98954.25
2018-12-20T13:05:27.534Z,98947.73
2018-12-20T13:08:03.957Z,98949.37
2018-12-20T13:10:38.106Z,98953.16
2018-12-20T13:13:14.693Z,98955.63
2018-12-20T13:15:53.629Z,98949.84
2018-12-20T13:18:31.817Z,98955.41
2018-12-20T13:21:10.282Z,98950.44
2018-12-20T13:23:53.520Z,98950.99
2018-12-20T13:26:32.241Z,98958.03
2018-12-20T13:29:11.751Z,98953.54
2018-12-20T13:31:49.867Z,98956.94
2018-12-20T13:34:29.756Z,98958.80
2018-12-20T13:37:15.625Z,98964.23
2018-12-20T13:39:43.429Z,98960.97
2018-12-20T13:42:18.714Z,98957.57
2018-12-20T13:44:54.018Z,98963.77
2018-12-20T13:47:28.648Z,98966.86
2018-12-20T13:50:01.798Z,98967.93
2018-12-20T13:52:49.835Z,98960.38
2018-12-20T13:55:25.764Z,98964.36
2018-12-20T13:58:03.316Z,98970.51
2018-12-20T14:00:39.187Z,98971.87
2018-12-20T14:03:19.344Z,98970.09
2018-12-20T14:05:59.797Z,98969.33
2018-12-20T14:08:38.388Z,98981.94
2018-12-20T14:11:13.394Z,98973.66
2018-12-20T14:13:48.809Z,98981.17
2018-12-20T14:16:28.488Z,98974.28
2018-12-20T14:19:10.201Z,98968.39
2018-12-20T14:21:50.624Z,98972.26
2018-12-20T14:24:28.692Z,98981.63
2018-12-20T14:27:05.426Z,98986.43
2018-12-20T14:29:38.312Z,98980.95
2018-12-20T14:32:16.638Z,98978.40
2018-12-20T14:34:54.439Z,98980.65
2018-12-20T14:37:28.845Z,98983.03
2018-12-20T14:40:06.696Z,98981.33
2018-12-20T14:42:41.903Z,98992.07
2018-12-20T14:45:18.666Z,98987.13
2018-12-20T14:47:55.440Z,98994.72
2018-12-20T14:50:34.966Z,98993.07
2018-12-20T14:53:11.990Z,98993.41
2018-12-20T14:55:51.082Z,98989.05
2018-12-20T14:58:29.645Z,98986.58
2018-12-20T15:01:14.640Z,98982.16
2018-12-20T15:03:52.076Z,98993.39
2018-12-20T15:06:35.936Z,98991.83
2018-12-20T15:09:18.207Z,98995.23
2018-12-20T15:11:54.026Z,98994.91
2018-12-20T15:14:35.150Z,98996.31
2018-12-20T15:17:17.497Z,99002.50
2018-12-20T15:19:58.702Z,98996.98
2018-12-20T15:22:32.908Z,99001.57
2018-12-20T15:25:11.475Z,99002.02
2018-12-20T15:27:49.849Z,99010.30
2018-12-20T15:30:28.247Z,99006.97
2018-12-20T15:33:05.307Z,99011.77
2018-12-20T15:35:41.148Z,99010.13
2018-12-20T15:38:18.214Z,99015.77
2018-12-20T15:40:52.866Z,99016.77
2018-12-20T15:43:32.381Z,99014.75
2018-12-20T15:46:08.534Z,99018.31
2018-12-20T15:48:47.238Z,99017.08
2018-12-20T15:51:32.018Z,99023.19
2018-12-20T15:54:10.159Z,99023.00
2018-12-20T15:56:48.276Z,99017.54
2018-12-20T15:59:27.403Z,99021.61
2018-12-20T16:02:06.010Z,99021.45
2018-12-20T16:04:44.458Z,99023.39
2018-12-20T16:07:19.025Z,99022.53
2018-12-20T16:09:53.017Z,99024.31
2018-12-20T16:12:31.149Z,99025.70
2018-12-20T16:15:09.954Z,99029.65
2018-12-20T16:17:48.478Z,99029.03
2018-12-20T16:20:26.481Z,99035.29
2018-12-20T16:23:04.703Z,99041.20
2018-12-20T16:25:38.701Z,99039.50
2018-12-20T16:28:14.394Z,99043.64
2018-12-20T16:30:49.365Z,99046.34
2018-12-20T16:33:27.210Z,99046.45
2018-12-20T16:36:05.522Z,99043.64
2018-12-20T16:38:39.893Z,99043.95
2018-12-20T16:41:24.634Z,99047.97
2018-12-20T16:44:03.995Z,99048.52
2018-12-20T16:46:36.242Z,99045.23
2018-12-20T16:49:13.743Z,99051.80
2018-12-20T16:52:02.507Z,99052.46
2018-12-20T16:54:41.469Z,99062.35
2018-12-20T16:57:21.124Z,99052.64
2018-12-20T16:59:57.398Z,99061.58
2018-12-20T17:02:32.195Z,99062.30
2018-12-20T17:05:09.161Z,99055.73
2018-12-20T17:07:46.278Z,99057.10
2018-12-20T17:10:21.602Z,99058.41
2018-12-20T17:12:59.974Z,99058.83
2018-12-20T17:15:39.566Z,99060.41
2018-12-20T17:18:19.267Z,99061.00
2018-12-20T17:20:57.446Z,99064.44
2018-12-20T17:23:35.670Z,99073.72
2018-12-20T17:26:13.857Z,99077.03
2018-12-20T17:28:49.012Z,99079.45
2018-12-20T17:31:33.795Z,99082.07
2018-12-20T17:34:12.003Z,99082.92
2018-12-20T17:36:56.246Z,99072.82
2018-12-20T17:39:36.365Z,99077.92
2018-12-20T17:42:18.857Z,99091.69
2018-12-20T17:44:56.942Z,99092.55
2018-12-20T17:47:38.593Z,99080.40
2018-12-20T17:50:13.272Z,99094.01
2018-12-20T17:52:50.295Z,99085.84
2018-12-20T17:55:27.837Z,99087.75
2018-12-20T17:58:02.705Z,99085.38
2018-12-20T18:00:41.599Z,99091.22
2018-12-20T18:03:19.963Z,99085.87
2018-12-20T18:05:58.001Z,99085.23
2018-12-20T18:08:35.745Z,99080.09
2018-12-20T18:11:14.216Z,99079.01
2018-12-20T18:13:49.643Z,99085.66
2018-12-20T18:16:25.036Z,99076.77
2018-12-20T18:19:04.814Z,99079.81
2018-12-20T18:21:43.185Z,99074.83
2018-12-20T18:24:18.257Z,99073.95
2018-12-20T18:26:58.798Z,99080.59
2018-12-20T18:29:36.432Z,99081.68
2018-12-20T18:32:17.146Z,99081.05
2018-12-20T18:34:51.807Z,99083.69
2018-12-20T18:37:26.424Z,99082.68
2018-12-20T18:40:03.305Z,99077.89
2018-12-20T18:42:38.247Z,99083.38
2018-12-20T18:45:15.178Z,99081.68
2018-12-20T18:47:49.983Z,99083.34
2018-12-20T18:50:30.857Z,99083.00
2018-12-20T18:53:09.989Z,99086.47
2018-12-20T18:55:42.402Z,99085.42
2018-12-20T18:58:16.580Z,99089.22
2018-12-20T19:00:51.736Z,99084.14
2018-12-20T19:03:27.022Z,99087.75
2018-12-20T19:06:05.247Z,99090.56
2018-12-20T19:08:39.847Z,99088.05
2018-12-20T19:11:17.282Z,99084.45
2018-12-20T19:13:51.671Z,99092.00
2018-12-20T19:16:27.028Z,99092.27
2018-12-20T19:19:03.864Z,99099.92
2018-12-20T19:21:36.201Z,99097.98
2018-12-20T19:24:12.613Z,99090.41
2018-12-20T19:26:46.891Z,99090.84
2018-12-20T19:29:21.290Z,99091.91
2018-12-20T19:32:00.823Z,99084.61
2018-12-20T19:34:37.441Z,99091.22
2018-12-20T19:37:15.983Z,99097.02
2018-12-20T19:39:51.874Z,99095.97
2018-12-20T19:42:30.505Z,99089.44
2018-12-20T19:45:07.229Z,99091.98
2018-12-20T19:47:42.477Z,99096.27
2018-12-20T19:50:16.575Z,99097.82
2018-12-20T19:53:01.394Z,99095.06
2018-12-20T19:55:43.107Z,99095.34
2018-12-20T19:58:18.993Z,99091.06
2018-12-20T20:00:58.164Z,99090.75
2018-12-20T20:03:35.007Z,99084.33
2018-12-20T20:06:10.283Z,99096.84
2018-12-20T20:08:48.748Z,99095.34
2018-12-20T20:11:25.603Z,99089.78
2018-12-20T20:14:00.323Z,99091.78
2018-12-20T20:16:36.305Z,99080.23
2018-12-20T20:19:12.483Z,99080.65
2018-12-20T20:21:50.858Z,99079.59
2018-12-20T20:24:31.305Z,99078.81
2018-12-20T20:27:08.279Z,99076.26
2018-12-20T20:29:47.121Z,99068.07
2018-12-20T20:32:25.658Z,99072.13
2018-12-20T20:35:01.664Z,99070.97
2018-12-20T20:37:39.718Z,99069.58
2018-12-20T20:40:15.309Z,99077.27
2018-12-20T20:42:47.804Z,99082.06
2018-12-20T20:45:26.011Z,99083.73
2018-12-20T20:48:04.321Z,99086.47
2018-12-20T20:50:42.232Z,99085.81
2018-12-20T20:53:22.784Z,99086.43
2018-12-20T20:55:57.668Z,99075.72
2018-12-20T20:58:35.810Z,99080.05
2018-12-20T21:01:10.254Z,99083.00
2018-12-20T21:03:47.729Z,99083.69
2018-12-20T21:06:22.393Z,99084.92
2018-12-20T21:09:04.442Z,99082.38
2018-12-20T21:11:38.927Z,99082.02
2018-12-20T21:14:14.895Z,99081.95
2018-12-20T21:16:52.914Z,99083.14
2018-12-20T21:19:28.519Z,99076.34
2018-12-20T21:22:06.834Z,99077.08
2018-12-20T21:24:43.011Z,99075.76
2018-12-20T21:27:30.570Z,99082.02
2018-12-20T21:30:06.764Z,99072.17
2018-12-20T21:32:45.379Z,99078.47
2018-12-20T21:35:23.370Z,99076.61
2018-12-20T21:38:00.714Z,99068.27
2018-12-20T21:40:35.166Z,99072.36
2018-12-20T21:43:13.750Z,99070.45
2018-12-20T21:45:52.716Z,99075.25
2018-12-20T21:48:31.160Z,99070.61
2018-12-20T21:51:05.189Z,99076.75
2018-12-20T21:53:41.672Z,99079.20
2018-12-20T21:56:16.141Z,99079.08
2018-12-20T21:58:51.195Z,99086.81
2018-12-20T22:01:25.406Z,99078.69
2018-12-20T22:04:03.538Z,99075.67
2018-12-20T22:06:42.289Z,99080.16
2018-12-20T22:09:20.567Z,99077.76
2018-12-20T22:11:55.491Z,99087.42
2018-12-20T22:14:33.619Z,99081.63
2018-12-20T22:17:10.767Z,99080.00
2018-12-20T22:19:46.256Z,99084.77
2018-12-20T22:22:24.401Z,99089.44
2018-12-20T22:25:02.631Z,99086.85
2018-12-20T22:27:40.766Z,99089.44
2018-12-20T22:30:17.193Z,99085.49
2018-12-20T22:32:53.314Z,99086.50
2018-12-20T22:35:27.688Z,99083.09
2018-12-20T22:38:04.995Z,99082.86
2018-12-20T22:40:43.245Z,99083.33
2018-12-20T22:43:19.547Z,99090.75
2018-12-20T22:45:53.901Z,99091.48
2018-12-20T22:48:30.117Z,99088.05
2018-12-20T22:51:06.349Z,99085.49
2018-12-20T22:53:40.547Z,99088.54
2018-12-20T22:56:16.850Z,99082.09
2018-12-20T22:58:53.281Z,99092.45
2018-12-20T23:01:27.378Z,99094.42
2018-12-20T23:04:05.294Z,99085.65
2018-12-20T23:06:43.454Z,99084.17
2018-12-20T23:09:21.861Z,99086.58
2018-12-20T23:12:00.916Z,99088.13
2018-12-20T23:14:39.509Z,99094.11
2018-12-20T23:17:17.577Z,99094.19
2018-12-20T23:19:55.722Z,99092.05
2018-12-20T23:22:33.591Z,99086.30
2018-12-20T23:25:11.828Z,99090.39
2018-12-20T23:27:47.981Z,99091.09
2018-12-20T23:30:26.074Z,99086.03
2018-12-20T23:33:04.387Z,99078.87
2018-12-20T23:35:42.822Z,99082.38
2018-12-20T23:38:21.066Z,99068.30
2018-12-20T23:40:55.553Z,99075.53
2018-12-20T23:43:33.650Z,99064.79
2018-12-20T23:46:11.859Z,99068.11
2018-12-20T23:48:48.160Z,99066.05
2018-12-20T23:51:22.330Z,99064.17
2018-12-20T23:54:00.454Z,99057.30
2018-12-20T23:56:34.853Z,99057.90
2018-12-20T23:59:12.902Z,99054.80
